sensor_id;sensor_type;location;lat;lon;timestamp;P1;durP1;ratioP1;P2;durP2;ratioP2
30299;SDS011;17110;52.602;12.998;2024-01-11T00:02:49;27.80;;;17.48;;
30299;SDS011;17110;52.602;12.998;2024-01-11T00:07:50;28.33;;;17.38;;
30299;SDS011;17110;52.602;12.998;2024-01-11T00:12:50;32.05;;;19.08;;
30299;SDS011;17110;52.602;12.998;2024-01-11T00:17:52;30.42;;;17.60;;
30299;SDS011;17110;52.602;12.998;2024-01-11T00:22:53;27.88;;;17.27;;
30299;SDS011;17110;52.602;12.998;2024-01-11T00:27:53;25.67;;;18.08;;
30299;SDS011;17110;52.602;12.998;2024-01-11T00:32:55;27.20;;;16.95;;
30299;SDS011;17110;52.602;12.998;2024-01-11T00:37:56;25.85;;;16.90;;
30299;SDS011;17110;52.602;12.998;2024-01-11T00:42:57;29.08;;;18.27;;
30299;SDS011;17110;52.602;12.998;2024-01-11T00:47:59;26.63;;;15.77;;
30299;SDS011;17110;52.602;12.998;2024-01-11T00:52:59;24.77;;;15.05;;
30299;SDS011;17110;52.602;12.998;2024-01-11T00:58:00;27.00;;;16.30;;
30299;SDS011;17110;52.602;12.998;2024-01-11T01:03:02;28.08;;;14.48;;
30299;SDS011;17110;52.602;12.998;2024-01-11T01:08:03;23.63;;;13.50;;
30299;SDS011;17110;52.602;12.998;2024-01-11T01:13:05;16.25;;;11.18;;
30299;SDS011;17110;52.602;12.998;2024-01-11T01:18:07;20.08;;;10.48;;
30299;SDS011;17110;52.602;12.998;2024-01-11T01:23:07;15.82;;;9.68;;
30299;SDS011;17110;52.602;12.998;2024-01-11T01:28:08;16.27;;;9.82;;
30299;SDS011;17110;52.602;12.998;2024-01-11T01:33:10;18.65;;;10.25;;
30299;SDS011;17110;52.602;12.998;2024-01-11T01:38:11;11.77;;;7.18;;
30299;SDS011;17110;52.602;12.998;2024-01-11T01:43:12;12.07;;;7.45;;
30299;SDS011;17110;52.602;12.998;2024-01-11T01:48:14;11.15;;;7.07;;
30299;SDS011;17110;52.602;12.998;2024-01-11T01:53:14;15.68;;;8.30;;
30299;SDS011;17110;52.602;12.998;2024-01-11T01:58:15;14.10;;;7.45;;
30299;SDS011;17110;52.602;12.998;2024-01-11T02:03:18;12.35;;;7.07;;
30299;SDS011;17110;52.602;12.998;2024-01-11T02:08:19;11.32;;;7.00;;
30299;SDS011;17110;52.602;12.998;2024-01-11T02:13:22;9.93;;;6.38;;
30299;SDS011;17110;52.602;12.998;2024-01-11T02:18:24;13.55;;;7.85;;
30299;SDS011;17110;52.602;12.998;2024-01-11T02:23:24;13.48;;;7.10;;
30299;SDS011;17110;52.602;12.998;2024-01-11T02:28:28;13.13;;;7.22;;
30299;SDS011;17110;52.602;12.998;2024-01-11T02:33:29;11.93;;;7.75;;
30299;SDS011;17110;52.602;12.998;2024-01-11T02:38:29;14.40;;;8.38;;
30299;SDS011;17110;52.602;12.998;2024-01-11T02:43:32;14.07;;;7.35;;
30299;SDS011;17110;52.602;12.998;2024-01-11T02:48:33;14.95;;;8.57;;
30299;SDS011;17110;52.602;12.998;2024-01-11T02:53:33;13.32;;;8.05;;
30299;SDS011;17110;52.602;12.998;2024-01-11T02:58:35;18.38;;;9.15;;
30299;SDS011;17110;52.602;12.998;2024-01-11T03:03:36;18.60;;;8.55;;
30299;SDS011;17110;52.602;12.998;2024-01-11T03:08:37;18.65;;;9.27;;
30299;SDS011;17110;52.602;12.998;2024-01-11T03:13:38;20.60;;;10.80;;
30299;SDS011;17110;52.602;12.998;2024-01-11T03:18:39;19.13;;;10.00;;
30299;SDS011;17110;52.602;12.998;2024-01-11T03:23:40;18.45;;;10.65;;
30299;SDS011;17110;52.602;12.998;2024-01-11T03:28:42;19.48;;;9.73;;
30299;SDS011;17110;52.602;12.998;2024-01-11T03:33:43;21.13;;;10.63;;
30299;SDS011;17110;52.602;12.998;2024-01-11T03:38:43;22.65;;;10.77;;
30299;SDS011;17110;52.602;12.998;2024-01-11T03:43:45;19.15;;;10.18;;
30299;SDS011;17110;52.602;12.998;2024-01-11T03:48:46;22.15;;;11.68;;
30299;SDS011;17110;52.602;12.998;2024-01-11T03:53:46;20.75;;;10.98;;
30299;SDS011;17110;52.602;12.998;2024-01-11T03:58:48;22.83;;;10.43;;
30299;SDS011;17110;52.602;12.998;2024-01-11T04:03:49;19.33;;;10.85;;
30299;SDS011;17110;52.602;12.998;2024-01-11T04:08:50;18.85;;;10.30;;
30299;SDS011;17110;52.602;12.998;2024-01-11T04:13:52;20.63;;;10.80;;
30299;SDS011;17110;52.602;12.998;2024-01-11T04:18:52;23.58;;;11.40;;
30299;SDS011;17110;52.602;12.998;2024-01-11T04:23:53;20.73;;;11.10;;
30299;SDS011;17110;52.602;12.998;2024-01-11T04:28:55;21.38;;;10.68;;
30299;SDS011;17110;52.602;12.998;2024-01-11T04:33:56;23.05;;;10.32;;
30299;SDS011;17110;52.602;12.998;2024-01-11T04:38:57;23.85;;;11.63;;
30299;SDS011;17110;52.602;12.998;2024-01-11T04:43:59;26.20;;;10.85;;
30299;SDS011;17110;52.602;12.998;2024-01-11T04:48:59;25.10;;;11.02;;
30299;SDS011;17110;52.602;12.998;2024-01-11T04:54:00;23.23;;;11.15;;
30299;SDS011;17110;52.602;12.998;2024-01-11T04:59:02;24.52;;;11.38;;
30299;SDS011;17110;52.602;12.998;2024-01-11T05:04:02;24.83;;;11.48;;
30299;SDS011;17110;52.602;12.998;2024-01-11T05:09:03;22.23;;;10.35;;
30299;SDS011;17110;52.602;12.998;2024-01-11T05:14:05;26.23;;;11.85;;
30299;SDS011;17110;52.602;12.998;2024-01-11T05:19:06;26.00;;;10.50;;
30299;SDS011;17110;52.602;12.998;2024-01-11T05:24:06;23.77;;;10.93;;
30299;SDS011;17110;52.602;12.998;2024-01-11T05:29:08;26.63;;;12.20;;
30299;SDS011;17110;52.602;12.998;2024-01-11T05:34:09;23.45;;;11.63;;
30299;SDS011;17110;52.602;12.998;2024-01-11T05:39:10;25.75;;;11.73;;
30299;SDS011;17110;52.602;12.998;2024-01-11T05:44:11;29.08;;;11.82;;
30299;SDS011;17110;52.602;12.998;2024-01-11T05:49:13;30.25;;;12.30;;
30299;SDS011;17110;52.602;12.998;2024-01-11T05:54:13;29.38;;;12.45;;
30299;SDS011;17110;52.602;12.998;2024-01-11T05:59:15;24.25;;;12.32;;
30299;SDS011;17110;52.602;12.998;2024-01-11T06:04:16;27.58;;;12.40;;
30299;SDS011;17110;52.602;12.998;2024-01-11T06:09:17;29.50;;;13.38;;
30299;SDS011;17110;52.602;12.998;2024-01-11T06:14:19;31.65;;;14.02;;
30299;SDS011;17110;52.602;12.998;2024-01-11T06:19:20;31.13;;;13.18;;
30299;SDS011;17110;52.602;12.998;2024-01-11T06:24:20;28.98;;;13.82;;
30299;SDS011;17110;52.602;12.998;2024-01-11T06:29:22;34.40;;;14.95;;
30299;SDS011;17110;52.602;12.998;2024-01-11T06:34:23;33.72;;;14.68;;
30299;SDS011;17110;52.602;12.998;2024-01-11T06:39:24;36.15;;;14.95;;
30299;SDS011;17110;52.602;12.998;2024-01-11T06:44:26;37.15;;;15.82;;
30299;SDS011;17110;52.602;12.998;2024-01-11T06:49:26;33.53;;;14.73;;
30299;SDS011;17110;52.602;12.998;2024-01-11T06:54:27;31.55;;;15.07;;
30299;SDS011;17110;52.602;12.998;2024-01-11T06:59:29;39.28;;;16.65;;
30299;SDS011;17110;52.602;12.998;2024-01-11T07:04:29;35.85;;;15.60;;
30299;SDS011;17110;52.602;12.998;2024-01-11T07:09:30;35.47;;;17.08;;
30299;SDS011;17110;52.602;12.998;2024-01-11T07:14:32;37.05;;;17.02;;
30299;SDS011;17110;52.602;12.998;2024-01-11T07:19:33;40.35;;;16.38;;
30299;SDS011;17110;52.602;12.998;2024-01-11T07:24:33;38.17;;;16.90;;
30299;SDS011;17110;52.602;12.998;2024-01-11T07:29:35;45.20;;;17.23;;
30299;SDS011;17110;52.602;12.998;2024-01-11T07:34:36;37.22;;;15.90;;
30299;SDS011;17110;52.602;12.998;2024-01-11T07:39:36;35.90;;;15.88;;
30299;SDS011;17110;52.602;12.998;2024-01-11T07:44:39;36.03;;;16.35;;
30299;SDS011;17110;52.602;12.998;2024-01-11T07:49:40;39.05;;;16.15;;
30299;SDS011;17110;52.602;12.998;2024-01-11T07:54:41;35.63;;;16.58;;
30299;SDS011;17110;52.602;12.998;2024-01-11T07:59:43;38.17;;;17.52;;
30299;SDS011;17110;52.602;12.998;2024-01-11T08:04:43;37.22;;;18.23;;
30299;SDS011;17110;52.602;12.998;2024-01-11T08:09:44;39.70;;;16.40;;
30299;SDS011;17110;52.602;12.998;2024-01-11T08:14:46;35.90;;;17.13;;
30299;SDS011;17110;52.602;12.998;2024-01-11T08:19:46;34.90;;;16.75;;
30299;SDS011;17110;52.602;12.998;2024-01-11T08:24:47;39.33;;;17.65;;
30299;SDS011;17110;52.602;12.998;2024-01-11T08:29:49;36.15;;;17.05;;
30299;SDS011;17110;52.602;12.998;2024-01-11T08:34:50;43.30;;;18.55;;
30299;SDS011;17110;52.602;12.998;2024-01-11T08:39:50;38.97;;;18.52;;
30299;SDS011;17110;52.602;12.998;2024-01-11T08:44:52;40.42;;;17.60;;
30299;SDS011;17110;52.602;12.998;2024-01-11T08:49:53;46.97;;;20.33;;
30299;SDS011;17110;52.602;12.998;2024-01-11T08:54:53;37.25;;;19.27;;
30299;SDS011;17110;52.602;12.998;2024-01-11T08:59:55;39.10;;;18.13;;
30299;SDS011;17110;52.602;12.998;2024-01-11T09:04:56;32.17;;;17.02;;
30299;SDS011;17110;52.602;12.998;2024-01-11T09:09:57;40.15;;;17.60;;
30299;SDS011;17110;52.602;12.998;2024-01-11T09:14:59;31.40;;;16.13;;
30299;SDS011;17110;52.602;12.998;2024-01-11T09:19:59;33.72;;;17.08;;
30299;SDS011;17110;52.602;12.998;2024-01-11T09:25:00;31.77;;;17.65;;
30299;SDS011;17110;52.602;12.998;2024-01-11T09:30:02;35.83;;;17.08;;
30299;SDS011;17110;52.602;12.998;2024-01-11T09:35:04;34.55;;;17.95;;
30299;SDS011;17110;52.602;12.998;2024-01-11T09:40:05;31.13;;;16.33;;
30299;SDS011;17110;52.602;12.998;2024-01-11T09:45:09;35.90;;;16.45;;
30299;SDS011;17110;52.602;12.998;2024-01-11T09:50:12;32.22;;;16.27;;
30299;SDS011;17110;52.602;12.998;2024-01-11T09:55:15;32.85;;;17.20;;
30299;SDS011;17110;52.602;12.998;2024-01-11T10:00:18;36.20;;;17.13;;
30299;SDS011;17110;52.602;12.998;2024-01-11T10:05:22;30.00;;;17.05;;
30299;SDS011;17110;52.602;12.998;2024-01-11T10:10:23;36.33;;;17.60;;
30299;SDS011;17110;52.602;12.998;2024-01-11T10:15:25;36.15;;;18.02;;
30299;SDS011;17110;52.602;12.998;2024-01-11T10:20:25;33.92;;;17.02;;
30299;SDS011;17110;52.602;12.998;2024-01-11T10:25:26;32.47;;;16.63;;
30299;SDS011;17110;52.602;12.998;2024-01-11T10:30:28;33.47;;;16.25;;
30299;SDS011;17110;52.602;12.998;2024-01-11T10:35:29;38.25;;;17.60;;
30299;SDS011;17110;52.602;12.998;2024-01-11T10:40:29;38.10;;;18.83;;
30299;SDS011;17110;52.602;12.998;2024-01-11T10:45:32;37.03;;;18.63;;
30299;SDS011;17110;52.602;12.998;2024-01-11T10:50:34;37.28;;;17.00;;
30299;SDS011;17110;52.602;12.998;2024-01-11T10:55:36;40.22;;;19.02;;
30299;SDS011;17110;52.602;12.998;2024-01-11T11:00:39;34.10;;;18.27;;
30299;SDS011;17110;52.602;12.998;2024-01-11T11:05:40;35.50;;;17.52;;
30299;SDS011;17110;52.602;12.998;2024-01-11T11:10:43;36.63;;;17.70;;
30299;SDS011;17110;52.602;12.998;2024-01-11T11:15:48;35.38;;;18.05;;
30299;SDS011;17110;52.602;12.998;2024-01-11T11:20:48;31.58;;;17.75;;
30299;SDS011;17110;52.602;12.998;2024-01-11T11:25:50;34.13;;;17.80;;
30299;SDS011;17110;52.602;12.998;2024-01-11T11:30:56;33.35;;;18.05;;
30299;SDS011;17110;52.602;12.998;2024-01-11T11:36:02;35.70;;;18.20;;
30299;SDS011;17110;52.602;12.998;2024-01-11T11:41:03;35.30;;;19.02;;
30299;SDS011;17110;52.602;12.998;2024-01-11T11:46:05;37.05;;;18.92;;
30299;SDS011;17110;52.602;12.998;2024-01-11T11:51:06;37.80;;;19.80;;
30299;SDS011;17110;52.602;12.998;2024-01-11T11:56:08;37.30;;;19.48;;
30299;SDS011;17110;52.602;12.998;2024-01-11T12:01:11;36.47;;;19.98;;
30299;SDS011;17110;52.602;12.998;2024-01-11T12:06:13;39.92;;;20.65;;
30299;SDS011;17110;52.602;12.998;2024-01-11T12:11:14;28.15;;;15.18;;
30299;SDS011;17110;52.602;12.998;2024-01-11T12:16:18;31.58;;;16.42;;
30299;SDS011;17110;52.602;12.998;2024-01-11T12:21:19;29.40;;;16.13;;
30299;SDS011;17110;52.602;12.998;2024-01-11T12:26:20;28.40;;;16.02;;
30299;SDS011;17110;52.602;12.998;2024-01-11T12:31:22;30.40;;;16.42;;
30299;SDS011;17110;52.602;12.998;2024-01-11T12:36:23;28.40;;;16.55;;
30299;SDS011;17110;52.602;12.998;2024-01-11T12:41:24;28.63;;;15.57;;
30299;SDS011;17110;52.602;12.998;2024-01-11T12:46:26;30.30;;;16.20;;
30299;SDS011;17110;52.602;12.998;2024-01-11T12:51:27;36.90;;;19.85;;
30299;SDS011;17110;52.602;12.998;2024-01-11T12:56:27;32.40;;;18.23;;
30299;SDS011;17110;52.602;12.998;2024-01-11T13:01:30;32.40;;;17.02;;
30299;SDS011;17110;52.602;12.998;2024-01-11T13:06:30;33.00;;;18.15;;
30299;SDS011;17110;52.602;12.998;2024-01-11T13:11:31;25.90;;;15.73;;
30299;SDS011;17110;52.602;12.998;2024-01-11T13:16:33;29.27;;;15.80;;
30299;SDS011;17110;52.602;12.998;2024-01-11T13:21:34;27.33;;;15.68;;
30299;SDS011;17110;52.602;12.998;2024-01-11T13:26:35;28.88;;;14.65;;
30299;SDS011;17110;52.602;12.998;2024-01-11T13:31:37;23.05;;;13.60;;
30299;SDS011;17110;52.602;12.998;2024-01-11T13:36:38;27.80;;;15.43;;
30299;SDS011;17110;52.602;12.998;2024-01-11T13:41:38;29.52;;;17.30;;
30299;SDS011;17110;52.602;12.998;2024-01-11T13:46:41;23.10;;;12.60;;
30299;SDS011;17110;52.602;12.998;2024-01-11T13:51:41;24.83;;;12.23;;
30299;SDS011;17110;52.602;12.998;2024-01-11T13:56:42;23.15;;;13.23;;
30299;SDS011;17110;52.602;12.998;2024-01-11T14:01:44;25.90;;;15.00;;
30299;SDS011;17110;52.602;12.998;2024-01-11T14:06:44;22.83;;;13.45;;
30299;SDS011;17110;52.602;12.998;2024-01-11T14:11:45;27.95;;;13.77;;
30299;SDS011;17110;52.602;12.998;2024-01-11T14:16:47;27.63;;;15.25;;
30299;SDS011;17110;52.602;12.998;2024-01-11T14:21:48;28.30;;;14.90;;
30299;SDS011;17110;52.602;12.998;2024-01-11T14:26:48;32.83;;;16.30;;
30299;SDS011;17110;52.602;12.998;2024-01-11T14:31:50;32.63;;;17.00;;
30299;SDS011;17110;52.602;12.998;2024-01-11T14:36:51;32.22;;;14.88;;
30299;SDS011;17110;52.602;12.998;2024-01-11T14:41:52;29.08;;;14.88;;
30299;SDS011;17110;52.602;12.998;2024-01-11T14:46:54;21.80;;;12.93;;
30299;SDS011;17110;52.602;12.998;2024-01-11T14:51:54;26.17;;;14.18;;
30299;SDS011;17110;52.602;12.998;2024-01-11T14:56:55;21.38;;;12.63;;
30299;SDS011;17110;52.602;12.998;2024-01-11T15:01:57;25.73;;;12.93;;
30299;SDS011;17110;52.602;12.998;2024-01-11T15:06:58;22.85;;;11.98;;
30299;SDS011;17110;52.602;12.998;2024-01-11T15:11:59;21.05;;;11.68;;
30299;SDS011;17110;52.602;12.998;2024-01-11T15:17:01;23.88;;;11.82;;
30299;SDS011;17110;52.602;12.998;2024-01-11T15:22:02;19.65;;;11.13;;
30299;SDS011;17110;52.602;12.998;2024-01-11T15:27:03;18.08;;;10.13;;
30299;SDS011;17110;52.602;12.998;2024-01-11T15:32:05;24.15;;;11.45;;
30299;SDS011;17110;52.602;12.998;2024-01-11T15:37:06;21.27;;;10.32;;
30299;SDS011;17110;52.602;12.998;2024-01-11T15:42:07;18.80;;;10.60;;
30299;SDS011;17110;52.602;12.998;2024-01-11T15:47:09;22.88;;;11.45;;
30299;SDS011;17110;52.602;12.998;2024-01-11T15:52:09;19.92;;;10.68;;
30299;SDS011;17110;52.602;12.998;2024-01-11T15:57:10;33.30;;;18.25;;
30299;SDS011;17110;52.602;12.998;2024-01-11T16:02:12;28.33;;;15.10;;
30299;SDS011;17110;52.602;12.998;2024-01-11T16:07:13;22.00;;;11.80;;
30299;SDS011;17110;52.602;12.998;2024-01-11T16:12:13;21.02;;;11.40;;
30299;SDS011;17110;52.602;12.998;2024-01-11T16:17:15;29.45;;;13.20;;
30299;SDS011;17110;52.602;12.998;2024-01-11T16:22:16;25.73;;;12.82;;
30299;SDS011;17110;52.602;12.998;2024-01-11T16:27:16;44.10;;;22.15;;
30299;SDS011;17110;52.602;12.998;2024-01-11T16:32:18;32.92;;;17.58;;
30299;SDS011;17110;52.602;12.998;2024-01-11T16:37:19;38.53;;;18.52;;
30299;SDS011;17110;52.602;12.998;2024-01-11T16:42:19;39.88;;;22.33;;
30299;SDS011;17110;52.602;12.998;2024-01-11T16:47:22;23.83;;;11.95;;
30299;SDS011;17110;52.602;12.998;2024-01-11T16:52:22;24.58;;;11.57;;
30299;SDS011;17110;52.602;12.998;2024-01-11T16:57:23;29.80;;;13.75;;
30299;SDS011;17110;52.602;12.998;2024-01-11T17:02:25;26.40;;;13.07;;
30299;SDS011;17110;52.602;12.998;2024-01-11T17:07:25;26.67;;;13.30;;
30299;SDS011;17110;52.602;12.998;2024-01-11T17:12:26;26.40;;;12.75;;
30299;SDS011;17110;52.602;12.998;2024-01-11T17:17:28;27.67;;;13.88;;
30299;SDS011;17110;52.602;12.998;2024-01-11T17:22:29;27.20;;;12.90;;
30299;SDS011;17110;52.602;12.998;2024-01-11T17:27:29;27.23;;;13.00;;
30299;SDS011;17110;52.602;12.998;2024-01-11T17:32:31;27.30;;;12.52;;
30299;SDS011;17110;52.602;12.998;2024-01-11T17:37:32;27.08;;;12.73;;
30299;SDS011;17110;52.602;12.998;2024-01-11T17:42:32;27.33;;;13.52;;
30299;SDS011;17110;52.602;12.998;2024-01-11T17:47:34;29.45;;;14.40;;
30299;SDS011;17110;52.602;12.998;2024-01-11T17:52:35;29.83;;;15.35;;
30299;SDS011;17110;52.602;12.998;2024-01-11T17:57:36;25.65;;;13.82;;
30299;SDS011;17110;52.602;12.998;2024-01-11T18:02:38;28.75;;;13.10;;
30299;SDS011;17110;52.602;12.998;2024-01-11T18:07:39;24.60;;;13.20;;
30299;SDS011;17110;52.602;12.998;2024-01-11T18:12:39;29.52;;;15.30;;
30299;SDS011;17110;52.602;12.998;2024-01-11T18:17:41;32.40;;;16.65;;
30299;SDS011;17110;52.602;12.998;2024-01-11T18:22:42;25.42;;;12.27;;
30299;SDS011;17110;52.602;12.998;2024-01-11T18:27:42;31.60;;;16.10;;
30299;SDS011;17110;52.602;12.998;2024-01-11T18:32:44;33.13;;;17.73;;
30299;SDS011;17110;52.602;12.998;2024-01-11T18:37:45;35.17;;;17.80;;
30299;SDS011;17110;52.602;12.998;2024-01-11T18:42:45;36.72;;;19.48;;
30299;SDS011;17110;52.602;12.998;2024-01-11T18:47:47;34.75;;;18.90;;
30299;SDS011;17110;52.602;12.998;2024-01-11T18:52:48;29.52;;;16.17;;
30299;SDS011;17110;52.602;12.998;2024-01-11T18:57:49;28.35;;;16.67;;
30299;SDS011;17110;52.602;12.998;2024-01-11T19:02:51;30.73;;;16.40;;
30299;SDS011;17110;52.602;12.998;2024-01-11T19:07:51;29.50;;;16.95;;
30299;SDS011;17110;52.602;12.998;2024-01-11T19:12:52;28.83;;;14.93;;
30299;SDS011;17110;52.602;12.998;2024-01-11T19:17:54;27.95;;;15.82;;
30299;SDS011;17110;52.602;12.998;2024-01-11T19:22:54;27.00;;;13.60;;
30299;SDS011;17110;52.602;12.998;2024-01-11T19:27:55;26.60;;;14.23;;
30299;SDS011;17110;52.602;12.998;2024-01-11T19:32:57;29.50;;;15.35;;
30299;SDS011;17110;52.602;12.998;2024-01-11T19:37:58;20.63;;;11.90;;
30299;SDS011;17110;52.602;12.998;2024-01-11T19:42:59;25.85;;;14.52;;
30299;SDS011;17110;52.602;12.998;2024-01-11T19:48:01;21.88;;;12.63;;
30299;SDS011;17110;52.602;12.998;2024-01-11T19:53:02;24.25;;;13.02;;
30299;SDS011;17110;52.602;12.998;2024-01-11T19:58:02;25.08;;;14.13;;
30299;SDS011;17110;52.602;12.998;2024-01-11T20:03:05;21.35;;;12.57;;
30299;SDS011;17110;52.602;12.998;2024-01-11T20:08:05;23.17;;;13.95;;
30299;SDS011;17110;52.602;12.998;2024-01-11T20:13:06;27.23;;;15.43;;
30299;SDS011;17110;52.602;12.998;2024-01-11T20:18:08;20.85;;;13.00;;
30299;SDS011;17110;52.602;12.998;2024-01-11T20:23:09;19.55;;;13.00;;
30299;SDS011;17110;52.602;12.998;2024-01-11T20:28:09;23.88;;;13.10;;
30299;SDS011;17110;52.602;12.998;2024-01-11T20:33:11;26.30;;;14.82;;
30299;SDS011;17110;52.602;12.998;2024-01-11T20:38:12;21.20;;;13.95;;
30299;SDS011;17110;52.602;12.998;2024-01-11T20:43:12;25.63;;;14.45;;
30299;SDS011;17110;52.602;12.998;2024-01-11T20:48:15;20.48;;;14.25;;
30299;SDS011;17110;52.602;12.998;2024-01-11T20:53:16;21.20;;;13.55;;
30299;SDS011;17110;52.602;12.998;2024-01-11T20:58:17;20.77;;;12.57;;
30299;SDS011;17110;52.602;12.998;2024-01-11T21:03:19;20.95;;;13.57;;
30299;SDS011;17110;52.602;12.998;2024-01-11T21:08:19;25.77;;;14.23;;
30299;SDS011;17110;52.602;12.998;2024-01-11T21:13:21;20.85;;;12.38;;
30299;SDS011;17110;52.602;12.998;2024-01-11T21:18:23;24.23;;;14.13;;
30299;SDS011;17110;52.602;12.998;2024-01-11T21:23:23;26.73;;;17.10;;
30299;SDS011;17110;52.602;12.998;2024-01-11T21:28:24;25.80;;;17.15;;
30299;SDS011;17110;52.602;12.998;2024-01-11T21:33:26;28.15;;;16.60;;
30299;SDS011;17110;52.602;12.998;2024-01-11T21:38:26;29.25;;;19.13;;
30299;SDS011;17110;52.602;12.998;2024-01-11T21:43:27;25.48;;;16.50;;
30299;SDS011;17110;52.602;12.998;2024-01-11T21:48:29;25.63;;;15.93;;
30299;SDS011;17110;52.602;12.998;2024-01-11T21:53:30;26.48;;;15.50;;
30299;SDS011;17110;52.602;12.998;2024-01-11T21:58:30;23.15;;;14.73;;
30299;SDS011;17110;52.602;12.998;2024-01-11T22:03:32;27.80;;;16.45;;
30299;SDS011;17110;52.602;12.998;2024-01-11T22:08:33;23.85;;;14.25;;
30299;SDS011;17110;52.602;12.998;2024-01-11T22:13:34;24.67;;;14.55;;
30299;SDS011;17110;52.602;12.998;2024-01-11T22:18:36;25.83;;;14.75;;
30299;SDS011;17110;52.602;12.998;2024-01-11T22:23:36;21.73;;;14.15;;
30299;SDS011;17110;52.602;12.998;2024-01-11T22:28:37;25.05;;;15.75;;
30299;SDS011;17110;52.602;12.998;2024-01-11T22:33:39;20.30;;;13.32;;
30299;SDS011;17110;52.602;12.998;2024-01-11T22:38:40;21.35;;;13.60;;
30299;SDS011;17110;52.602;12.998;2024-01-11T22:43:40;22.77;;;13.52;;
30299;SDS011;17110;52.602;12.998;2024-01-11T22:48:42;20.38;;;13.05;;
30299;SDS011;17110;52.602;12.998;2024-01-11T22:53:43;19.65;;;12.20;;
30299;SDS011;17110;52.602;12.998;2024-01-11T22:58:44;24.85;;;15.68;;
30299;SDS011;17110;52.602;12.998;2024-01-11T23:03:46;19.63;;;12.82;;
30299;SDS011;17110;52.602;12.998;2024-01-11T23:08:46;24.95;;;15.30;;
30299;SDS011;17110;52.602;12.998;2024-01-11T23:13:47;19.83;;;12.93;;
30299;SDS011;17110;52.602;12.998;2024-01-11T23:18:49;25.65;;;15.15;;
30299;SDS011;17110;52.602;12.998;2024-01-11T23:23:50;23.52;;;14.43;;
30299;SDS011;17110;52.602;12.998;2024-01-11T23:28:50;25.45;;;15.80;;
30299;SDS011;17110;52.602;12.998;2024-01-11T23:33:52;26.30;;;16.38;;
30299;SDS011;17110;52.602;12.998;2024-01-11T23:38:53;24.13;;;16.55;;
30299;SDS011;17110;52.602;12.998;2024-01-11T23:43:53;26.83;;;17.88;;
30299;SDS011;17110;52.602;12.998;2024-01-11T23:48:55;29.45;;;16.88;;
30299;SDS011;17110;52.602;12.998;2024-01-11T23:53:56;26.77;;;16.15;;
30299;SDS011;17110;52.602;12.998;2024-01-11T23:58:59;28.20;;;15.75;;
